sensor_id;sensor_type;location;lat;lon;timestamp;temperature;humidity
8563;DHT22;16392;52.508;13.468;2023-08-30T00:02:20;14.50;99.90
8563;DHT22;16392;52.508;13.468;2023-08-30T00:04:46;14.60;99.90
8563;DHT22;16392;52.508;13.468;2023-08-30T00:07:14;14.60;99.90
8563;DHT22;16392;52.508;13.468;2023-08-30T00:09:41;14.60;99.90
8563;DHT22;16392;52.508;13.468;2023-08-30T00:12:07;14.60;99.90
8563;DHT22;16392;52.508;13.468;2023-08-30T00:14:35;14.50;99.90
8563;DHT22;16392;52.508;13.468;2023-08-30T00:17:02;14.60;99.90
8563;DHT22;16392;52.508;13.468;2023-08-30T00:19:28;14.60;99.90
8563;DHT22;16392;52.508;13.468;2023-08-30T00:21:56;14.60;99.90
8563;DHT22;16392;52.508;13.468;2023-08-30T00:24:23;14.60;99.90
8563;DHT22;16392;52.508;13.468;2023-08-30T00:26:50;14.50;99.90
8563;DHT22;16392;52.508;13.468;2023-08-30T00:29:17;14.50;99.90
8563;DHT22;16392;52.508;13.468;2023-08-30T00:31:43;14.50;99.90
8563;DHT22;16392;52.508;13.468;2023-08-30T00:34:10;14.50;99.90
8563;DHT22;16392;52.508;13.468;2023-08-30T00:36:37;14.50;99.90
8563;DHT22;16392;52.508;13.468;2023-08-30T00:39:03;14.50;99.90
8563;DHT22;16392;52.508;13.468;2023-08-30T00:41:31;14.50;99.90
8563;DHT22;16392;52.508;13.468;2023-08-30T00:43:58;14.40;99.90
8563;DHT22;16392;52.508;13.468;2023-08-30T00:46:25;14.50;99.90
8563;DHT22;16392;52.508;13.468;2023-08-30T00:48:51;14.50;99.90
8563;DHT22;16392;52.508;13.468;2023-08-30T00:51:18;14.50;99.90
8563;DHT22;16392;52.508;13.468;2023-08-30T00:53:45;14.50;99.90
8563;DHT22;16392;52.508;13.468;2023-08-30T00:56:12;14.50;99.90
8563;DHT22;16392;52.508;13.468;2023-08-30T00:58:40;14.40;99.90
8563;DHT22;16392;52.508;13.468;2023-08-30T01:01:07;14.40;99.90
8563;DHT22;16392;52.508;13.468;2023-08-30T01:03:34;14.40;99.90
8563;DHT22;16392;52.508;13.468;2023-08-30T01:06:03;14.40;99.90
8563;DHT22;16392;52.508;13.468;2023-08-30T01:08:30;14.40;99.90
8563;DHT22;16392;52.508;13.468;2023-08-30T01:11:02;14.40;99.90
8563;DHT22;16392;52.508;13.468;2023-08-30T01:13:30;14.40;99.90
8563;DHT22;16392;52.508;13.468;2023-08-30T01:16:00;14.40;99.90
8563;DHT22;16392;52.508;13.468;2023-08-30T01:18:29;14.40;99.90
8563;DHT22;16392;52.508;13.468;2023-08-30T01:21:00;14.40;99.90
8563;DHT22;16392;52.508;13.468;2023-08-30T01:23:39;14.40;99.90
8563;DHT22;16392;52.508;13.468;2023-08-30T01:26:09;14.40;99.90
8563;DHT22;16392;52.508;13.468;2023-08-30T01:28:39;14.50;99.90
8563;DHT22;16392;52.508;13.468;2023-08-30T01:31:07;14.40;99.90
8563;DHT22;16392;52.508;13.468;2023-08-30T01:33:35;14.40;99.90
8563;DHT22;16392;52.508;13.468;2023-08-30T01:36:03;14.40;99.90
8563;DHT22;16392;52.508;13.468;2023-08-30T01:38:31;14.40;99.90
8563;DHT22;16392;52.508;13.468;2023-08-30T01:41:00;14.40;99.90
8563;DHT22;16392;52.508;13.468;2023-08-30T01:43:27;14.50;99.90
8563;DHT22;16392;52.508;13.468;2023-08-30T01:45:57;14.50;99.90
8563;DHT22;16392;52.508;13.468;2023-08-30T01:48:26;14.50;99.90
8563;DHT22;16392;52.508;13.468;2023-08-30T01:50:54;14.50;99.90
8563;DHT22;16392;52.508;13.468;2023-08-30T01:53:25;14.50;99.90
8563;DHT22;16392;52.508;13.468;2023-08-30T01:55:52;14.40;99.90
8563;DHT22;16392;52.508;13.468;2023-08-30T01:58:19;14.40;99.90
8563;DHT22;16392;52.508;13.468;2023-08-30T02:00:46;14.50;99.90
8563;DHT22;16392;52.508;13.468;2023-08-30T02:03:14;14.40;99.90
8563;DHT22;16392;52.508;13.468;2023-08-30T02:05:50;14.50;99.90
8563;DHT22;16392;52.508;13.468;2023-08-30T02:08:20;14.40;99.90
8563;DHT22;16392;52.508;13.468;2023-08-30T02:10:52;14.40;99.90
8563;DHT22;16392;52.508;13.468;2023-08-30T02:13:28;14.40;99.90
8563;DHT22;16392;52.508;13.468;2023-08-30T02:15:59;14.30;99.90
8563;DHT22;16392;52.508;13.468;2023-08-30T02:18:28;14.30;99.90
8563;DHT22;16392;52.508;13.468;2023-08-30T02:20:55;14.30;99.90
8563;DHT22;16392;52.508;13.468;2023-08-30T02:23:23;14.20;99.90
8563;DHT22;16392;52.508;13.468;2023-08-30T02:25:51;14.20;99.90
8563;DHT22;16392;52.508;13.468;2023-08-30T02:28:18;14.20;99.90
8563;DHT22;16392;52.508;13.468;2023-08-30T02:30:45;14.20;99.90
8563;DHT22;16392;52.508;13.468;2023-08-30T02:33:11;14.20;99.90
8563;DHT22;16392;52.508;13.468;2023-08-30T02:35:40;14.20;99.90
8563;DHT22;16392;52.508;13.468;2023-08-30T02:38:07;14.20;99.90
8563;DHT22;16392;52.508;13.468;2023-08-30T02:40:33;14.10;99.90
8563;DHT22;16392;52.508;13.468;2023-08-30T02:43:03;14.20;99.90
8563;DHT22;16392;52.508;13.468;2023-08-30T02:45:30;14.20;99.90
8563;DHT22;16392;52.508;13.468;2023-08-30T02:48:06;14.20;99.90
8563;DHT22;16392;52.508;13.468;2023-08-30T02:50:32;14.20;99.90
8563;DHT22;16392;52.508;13.468;2023-08-30T02:53:00;14.20;99.90
8563;DHT22;16392;52.508;13.468;2023-08-30T02:55:27;14.10;99.90
8563;DHT22;16392;52.508;13.468;2023-08-30T02:57:53;14.10;99.90
8563;DHT22;16392;52.508;13.468;2023-08-30T03:00:20;14.00;99.90
8563;DHT22;16392;52.508;13.468;2023-08-30T03:02:47;14.00;99.90
8563;DHT22;16392;52.508;13.468;2023-08-30T03:05:23;14.00;99.90
8563;DHT22;16392;52.508;13.468;2023-08-30T03:07:49;13.90;99.90
8563;DHT22;16392;52.508;13.468;2023-08-30T03:10:24;13.80;99.90
8563;DHT22;16392;52.508;13.468;2023-08-30T03:12:50;13.80;99.90
8563;DHT22;16392;52.508;13.468;2023-08-30T03:15:17;13.80;99.90
8563;DHT22;16392;52.508;13.468;2023-08-30T03:17:47;13.80;99.90
8563;DHT22;16392;52.508;13.468;2023-08-30T03:20:14;13.70;99.90
8563;DHT22;16392;52.508;13.468;2023-08-30T03:22:41;13.70;99.90
8563;DHT22;16392;52.508;13.468;2023-08-30T03:25:10;13.70;99.90
8563;DHT22;16392;52.508;13.468;2023-08-30T03:27:38;13.70;99.90
8563;DHT22;16392;52.508;13.468;2023-08-30T03:30:06;13.70;99.90
8563;DHT22;16392;52.508;13.468;2023-08-30T03:32:32;13.70;99.90
8563;DHT22;16392;52.508;13.468;2023-08-30T03:34:59;13.60;99.90
8563;DHT22;16392;52.508;13.468;2023-08-30T03:37:25;13.60;99.90
8563;DHT22;16392;52.508;13.468;2023-08-30T03:39:52;13.60;99.90
8563;DHT22;16392;52.508;13.468;2023-08-30T03:42:18;13.60;99.90
8563;DHT22;16392;52.508;13.468;2023-08-30T03:44:47;13.50;99.90
8563;DHT22;16392;52.508;13.468;2023-08-30T03:47:13;13.50;99.90
8563;DHT22;16392;52.508;13.468;2023-08-30T03:49:40;13.50;99.90
8563;DHT22;16392;52.508;13.468;2023-08-30T03:52:07;13.50;99.90
8563;DHT22;16392;52.508;13.468;2023-08-30T03:54:34;13.50;99.90
8563;DHT22;16392;52.508;13.468;2023-08-30T03:57:00;13.50;99.90
8563;DHT22;16392;52.508;13.468;2023-08-30T03:59:28;13.60;99.90
8563;DHT22;16392;52.508;13.468;2023-08-30T04:01:56;13.60;99.90
8563;DHT22;16392;52.508;13.468;2023-08-30T04:04:23;13.60;99.90
8563;DHT22;16392;52.508;13.468;2023-08-30T04:06:49;13.60;99.90
8563;DHT22;16392;52.508;13.468;2023-08-30T04:09:16;13.60;99.90
8563;DHT22;16392;52.508;13.468;2023-08-30T04:11:43;13.60;99.90
8563;DHT22;16392;52.508;13.468;2023-08-30T04:14:10;13.60;99.90
8563;DHT22;16392;52.508;13.468;2023-08-30T04:16:36;13.60;99.90
8563;DHT22;16392;52.508;13.468;2023-08-30T04:19:04;13.60;99.90
8563;DHT22;16392;52.508;13.468;2023-08-30T04:21:31;13.60;99.90
8563;DHT22;16392;52.508;13.468;2023-08-30T04:23:58;13.60;99.90
8563;DHT22;16392;52.508;13.468;2023-08-30T04:26:24;13.60;99.90
8563;DHT22;16392;52.508;13.468;2023-08-30T04:28:51;13.70;99.90
8563;DHT22;16392;52.508;13.468;2023-08-30T04:31:17;13.70;99.90
8563;DHT22;16392;52.508;13.468;2023-08-30T04:33:44;13.70;99.90
8563;DHT22;16392;52.508;13.468;2023-08-30T04:36:12;13.70;99.90
8563;DHT22;16392;52.508;13.468;2023-08-30T04:38:38;13.70;99.90
8563;DHT22;16392;52.508;13.468;2023-08-30T04:41:05;13.70;99.90
8563;DHT22;16392;52.508;13.468;2023-08-30T04:43:32;13.70;99.90
8563;DHT22;16392;52.508;13.468;2023-08-30T04:45:59;13.70;99.90
8563;DHT22;16392;52.508;13.468;2023-08-30T04:48:26;13.80;99.90
8563;DHT22;16392;52.508;13.468;2023-08-30T04:50:58;13.80;99.90
8563;DHT22;16392;52.508;13.468;2023-08-30T04:53:26;13.90;99.90
8563;DHT22;16392;52.508;13.468;2023-08-30T04:55:53;13.90;99.90
8563;DHT22;16392;52.508;13.468;2023-08-30T04:58:20;14.00;99.90
8563;DHT22;16392;52.508;13.468;2023-08-30T05:00:46;14.00;99.90
8563;DHT22;16392;52.508;13.468;2023-08-30T05:03:13;14.10;99.90
8563;DHT22;16392;52.508;13.468;2023-08-30T05:05:40;14.10;99.90
8563;DHT22;16392;52.508;13.468;2023-08-30T05:08:07;14.20;99.90
8563;DHT22;16392;52.508;13.468;2023-08-30T05:10:35;14.30;99.90
8563;DHT22;16392;52.508;13.468;2023-08-30T05:13:03;14.50;99.90
8563;DHT22;16392;52.508;13.468;2023-08-30T05:15:29;14.50;99.90
8563;DHT22;16392;52.508;13.468;2023-08-30T05:17:56;14.60;99.90
8563;DHT22;16392;52.508;13.468;2023-08-30T05:20:23;14.70;99.90
8563;DHT22;16392;52.508;13.468;2023-08-30T05:22:49;14.80;99.90
8563;DHT22;16392;52.508;13.468;2023-08-30T05:25:16;14.90;99.90
8563;DHT22;16392;52.508;13.468;2023-08-30T05:27:44;15.00;99.90
8563;DHT22;16392;52.508;13.468;2023-08-30T05:30:12;15.00;99.90
8563;DHT22;16392;52.508;13.468;2023-08-30T05:32:39;15.20;99.90
8563;DHT22;16392;52.508;13.468;2023-08-30T05:35:06;15.30;99.90
8563;DHT22;16392;52.508;13.468;2023-08-30T05:37:33;15.40;99.90
8563;DHT22;16392;52.508;13.468;2023-08-30T05:40:00;15.40;99.90
8563;DHT22;16392;52.508;13.468;2023-08-30T05:42:26;15.50;99.90
8563;DHT22;16392;52.508;13.468;2023-08-30T05:44:54;15.50;99.90
8563;DHT22;16392;52.508;13.468;2023-08-30T05:47:21;15.50;99.90
8563;DHT22;16392;52.508;13.468;2023-08-30T05:49:48;15.60;99.90
8563;DHT22;16392;52.508;13.468;2023-08-30T05:52:15;15.60;99.90
8563;DHT22;16392;52.508;13.468;2023-08-30T05:54:43;15.70;99.90
8563;DHT22;16392;52.508;13.468;2023-08-30T05:57:10;15.80;99.90
8563;DHT22;16392;52.508;13.468;2023-08-30T05:59:37;15.90;99.90
8563;DHT22;16392;52.508;13.468;2023-08-30T06:02:05;16.00;99.90
8563;DHT22;16392;52.508;13.468;2023-08-30T06:04:32;16.10;99.90
8563;DHT22;16392;52.508;13.468;2023-08-30T06:06:59;16.30;99.90
8563;DHT22;16392;52.508;13.468;2023-08-30T06:09:25;16.30;99.90
8563;DHT22;16392;52.508;13.468;2023-08-30T06:11:52;16.60;99.90
8563;DHT22;16392;52.508;13.468;2023-08-30T06:14:19;16.90;99.90
8563;DHT22;16392;52.508;13.468;2023-08-30T06:16:46;17.20;99.90
8563;DHT22;16392;52.508;13.468;2023-08-30T06:19:14;17.40;99.90
8563;DHT22;16392;52.508;13.468;2023-08-30T06:21:41;17.30;99.90
8563;DHT22;16392;52.508;13.468;2023-08-30T06:24:07;17.40;99.90
8563;DHT22;16392;52.508;13.468;2023-08-30T06:26:34;17.30;99.90
8563;DHT22;16392;52.508;13.468;2023-08-30T06:29:01;17.30;99.90
8563;DHT22;16392;52.508;13.468;2023-08-30T06:31:28;17.30;99.90
8563;DHT22;16392;52.508;13.468;2023-08-30T06:33:55;17.20;99.90
8563;DHT22;16392;52.508;13.468;2023-08-30T06:36:23;17.20;99.90
8563;DHT22;16392;52.508;13.468;2023-08-30T06:38:49;17.10;99.90
8563;DHT22;16392;52.508;13.468;2023-08-30T06:41:16;17.10;99.90
8563;DHT22;16392;52.508;13.468;2023-08-30T06:43:43;17.30;99.90
8563;DHT22;16392;52.508;13.468;2023-08-30T06:46:10;17.30;99.90
8563;DHT22;16392;52.508;13.468;2023-08-30T06:48:37;17.40;99.90
8563;DHT22;16392;52.508;13.468;2023-08-30T06:51:03;17.50;99.90
8563;DHT22;16392;52.508;13.468;2023-08-30T06:53:31;17.70;99.90
8563;DHT22;16392;52.508;13.468;2023-08-30T06:55:58;17.70;99.90
8563;DHT22;16392;52.508;13.468;2023-08-30T06:58:25;17.80;99.90
8563;DHT22;16392;52.508;13.468;2023-08-30T07:00:52;17.70;99.90
8563;DHT22;16392;52.508;13.468;2023-08-30T07:03:19;17.70;99.90
8563;DHT22;16392;52.508;13.468;2023-08-30T07:05:46;17.70;99.90
8563;DHT22;16392;52.508;13.468;2023-08-30T07:08:13;17.80;99.90
8563;DHT22;16392;52.508;13.468;2023-08-30T07:10:42;17.90;99.90
8563;DHT22;16392;52.508;13.468;2023-08-30T07:13:09;17.80;99.90
8563;DHT22;16392;52.508;13.468;2023-08-30T07:15:38;17.90;99.90
8563;DHT22;16392;52.508;13.468;2023-08-30T07:18:05;18.10;99.90
8563;DHT22;16392;52.508;13.468;2023-08-30T07:20:32;17.80;99.90
8563;DHT22;16392;52.508;13.468;2023-08-30T07:22:59;17.80;99.90
8563;DHT22;16392;52.508;13.468;2023-08-30T07:25:25;17.90;99.90
8563;DHT22;16392;52.508;13.468;2023-08-30T07:27:53;17.90;99.90
8563;DHT22;16392;52.508;13.468;2023-08-30T07:30:20;17.90;99.90
8563;DHT22;16392;52.508;13.468;2023-08-30T07:32:47;18.30;99.90
8563;DHT22;16392;52.508;13.468;2023-08-30T07:35:14;18.50;99.90
8563;DHT22;16392;52.508;13.468;2023-08-30T07:37:40;18.40;99.90
8563;DHT22;16392;52.508;13.468;2023-08-30T07:40:08;18.30;99.90
8563;DHT22;16392;52.508;13.468;2023-08-30T07:42:35;18.20;99.90
8563;DHT22;16392;52.508;13.468;2023-08-30T07:45:04;18.30;99.90
8563;DHT22;16392;52.508;13.468;2023-08-30T07:47:31;18.40;99.90
8563;DHT22;16392;52.508;13.468;2023-08-30T07:49:57;18.50;99.90
8563;DHT22;16392;52.508;13.468;2023-08-30T07:52:24;18.70;99.90
8563;DHT22;16392;52.508;13.468;2023-08-30T07:54:51;18.90;99.90
8563;DHT22;16392;52.508;13.468;2023-08-30T07:57:17;19.00;99.90
8563;DHT22;16392;52.508;13.468;2023-08-30T07:59:44;19.10;99.90
8563;DHT22;16392;52.508;13.468;2023-08-30T08:02:12;19.10;99.90
8563;DHT22;16392;52.508;13.468;2023-08-30T08:04:38;19.00;99.90
8563;DHT22;16392;52.508;13.468;2023-08-30T08:07:05;19.10;99.90
8563;DHT22;16392;52.508;13.468;2023-08-30T08:09:32;19.10;99.90
8563;DHT22;16392;52.508;13.468;2023-08-30T08:11:59;19.30;99.90
8563;DHT22;16392;52.508;13.468;2023-08-30T08:14:26;19.40;99.90
8563;DHT22;16392;52.508;13.468;2023-08-30T08:16:52;19.50;99.90
8563;DHT22;16392;52.508;13.468;2023-08-30T08:19:20;19.50;99.90
8563;DHT22;16392;52.508;13.468;2023-08-30T08:21:47;19.40;99.90
8563;DHT22;16392;52.508;13.468;2023-08-30T08:24:14;19.40;99.90
8563;DHT22;16392;52.508;13.468;2023-08-30T08:26:41;19.40;99.90
8563;DHT22;16392;52.508;13.468;2023-08-30T08:29:08;19.50;99.90
8563;DHT22;16392;52.508;13.468;2023-08-30T08:31:34;19.40;99.90
8563;DHT22;16392;52.508;13.468;2023-08-30T08:34:08;19.50;99.90
8563;DHT22;16392;52.508;13.468;2023-08-30T08:36:38;19.60;99.90
8563;DHT22;16392;52.508;13.468;2023-08-30T08:39:05;19.80;68.90
8563;DHT22;16392;52.508;13.468;2023-08-30T08:41:35;19.70;20.90
8563;DHT22;16392;52.508;13.468;2023-08-30T08:44:06;20.00;1.00
8563;DHT22;16392;52.508;13.468;2023-08-30T08:46:34;19.70;1.00
8563;DHT22;16392;52.508;13.468;2023-08-30T08:49:02;20.00;1.00
8563;DHT22;16392;52.508;13.468;2023-08-30T08:51:32;20.00;1.00
8563;DHT22;16392;52.508;13.468;2023-08-30T08:54:03;20.20;1.00
8563;DHT22;16392;52.508;13.468;2023-08-30T08:56:30;20.30;1.00
8563;DHT22;16392;52.508;13.468;2023-08-30T08:58:57;20.20;1.00
8563;DHT22;16392;52.508;13.468;2023-08-30T09:01:25;20.80;1.00
8563;DHT22;16392;52.508;13.468;2023-08-30T09:03:51;21.50;1.00
8563;DHT22;16392;52.508;13.468;2023-08-30T09:06:18;22.30;99.50
8563;DHT22;16392;52.508;13.468;2023-08-30T09:08:45;22.50;1.00
8563;DHT22;16392;52.508;13.468;2023-08-30T09:11:13;22.20;1.00
8563;DHT22;16392;52.508;13.468;2023-08-30T09:13:42;21.70;1.00
8563;DHT22;16392;52.508;13.468;2023-08-30T09:16:12;21.70;1.00
8563;DHT22;16392;52.508;13.468;2023-08-30T09:18:39;21.80;99.90
8563;DHT22;16392;52.508;13.468;2023-08-30T09:21:06;21.70;99.90
8563;DHT22;16392;52.508;13.468;2023-08-30T09:23:35;22.00;1.00
8563;DHT22;16392;52.508;13.468;2023-08-30T09:26:03;21.90;99.90
8563;DHT22;16392;52.508;13.468;2023-08-30T09:28:31;22.60;1.00
8563;DHT22;16392;52.508;13.468;2023-08-30T09:30:58;22.40;99.90
8563;DHT22;16392;52.508;13.468;2023-08-30T09:33:35;23.20;1.00
8563;DHT22;16392;52.508;13.468;2023-08-30T09:36:10;23.50;1.00
8563;DHT22;16392;52.508;13.468;2023-08-30T09:38:39;25.00;1.00
8563;DHT22;16392;52.508;13.468;2023-08-30T09:41:06;26.20;1.00
8563;DHT22;16392;52.508;13.468;2023-08-30T09:43:35;26.80;99.90
8563;DHT22;16392;52.508;13.468;2023-08-30T09:46:03;27.00;6.90
8563;DHT22;16392;52.508;13.468;2023-08-30T09:48:32;26.40;1.00
8563;DHT22;16392;52.508;13.468;2023-08-30T09:51:03;24.80;1.00
8563;DHT22;16392;52.508;13.468;2023-08-30T09:53:37;24.60;1.00
8563;DHT22;16392;52.508;13.468;2023-08-30T09:56:11;24.60;99.90
8563;DHT22;16392;52.508;13.468;2023-08-30T09:58:41;24.80;34.70
8563;DHT22;16392;52.508;13.468;2023-08-30T10:01:08;24.40;1.00
8563;DHT22;16392;52.508;13.468;2023-08-30T10:03:35;24.40;1.00
8563;DHT22;16392;52.508;13.468;2023-08-30T10:06:02;24.10;99.90
8563;DHT22;16392;52.508;13.468;2023-08-30T10:08:32;24.30;96.40
8563;DHT22;16392;52.508;13.468;2023-08-30T10:11:04;25.20;99.90
8563;DHT22;16392;52.508;13.468;2023-08-30T10:13:34;25.80;1.00
8563;DHT22;16392;52.508;13.468;2023-08-30T10:16:03;26.50;1.00
8563;DHT22;16392;52.508;13.468;2023-08-30T10:18:32;27.20;1.00
8563;DHT22;16392;52.508;13.468;2023-08-30T10:21:02;27.60;99.90
8563;DHT22;16392;52.508;13.468;2023-08-30T10:23:34;27.30;99.90
8563;DHT22;16392;52.508;13.468;2023-08-30T10:26:02;26.60;99.90
8563;DHT22;16392;52.508;13.468;2023-08-30T10:28:31;26.40;99.90
8563;DHT22;16392;52.508;13.468;2023-08-30T10:30:58;26.40;99.90
8563;DHT22;16392;52.508;13.468;2023-08-30T10:33:26;26.10;99.90
8563;DHT22;16392;52.508;13.468;2023-08-30T10:35:53;26.20;99.90
8563;DHT22;16392;52.508;13.468;2023-08-30T10:38:26;26.00;99.90
8563;DHT22;16392;52.508;13.468;2023-08-30T10:40:53;25.70;99.90
8563;DHT22;16392;52.508;13.468;2023-08-30T10:43:28;24.30;99.90
8563;DHT22;16392;52.508;13.468;2023-08-30T10:46:01;24.20;91.90
8563;DHT22;16392;52.508;13.468;2023-08-30T10:48:36;24.70;80.90
8563;DHT22;16392;52.508;13.468;2023-08-30T10:51:07;24.40;99.90
8563;DHT22;16392;52.508;13.468;2023-08-30T10:53:42;25.20;1.00
8563;DHT22;16392;52.508;13.468;2023-08-30T10:56:12;25.70;1.00
8563;DHT22;16392;52.508;13.468;2023-08-30T10:58:40;25.90;1.00
8563;DHT22;16392;52.508;13.468;2023-08-30T11:01:09;24.10;1.00
8563;DHT22;16392;52.508;13.468;2023-08-30T11:03:40;23.50;1.00
8563;DHT22;16392;52.508;13.468;2023-08-30T11:06:08;23.70;1.00
8563;DHT22;16392;52.508;13.468;2023-08-30T11:08:39;24.40;1.00
8563;DHT22;16392;52.508;13.468;2023-08-30T11:11:07;24.80;99.90
8563;DHT22;16392;52.508;13.468;2023-08-30T11:13:36;25.30;1.00
8563;DHT22;16392;52.508;13.468;2023-08-30T11:16:03;26.10;99.90
8563;DHT22;16392;52.508;13.468;2023-08-30T11:18:30;26.00;1.00
8563;DHT22;16392;52.508;13.468;2023-08-30T11:21:02;25.70;1.00
8563;DHT22;16392;52.508;13.468;2023-08-30T11:23:29;25.60;1.00
8563;DHT22;16392;52.508;13.468;2023-08-30T11:25:55;25.30;1.00
8563;DHT22;16392;52.508;13.468;2023-08-30T11:28:22;25.30;1.00
8563;DHT22;16392;52.508;13.468;2023-08-30T11:30:49;25.50;1.00
8563;DHT22;16392;52.508;13.468;2023-08-30T11:33:18;26.10;1.00
8563;DHT22;16392;52.508;13.468;2023-08-30T11:35:45;26.50;1.00
8563;DHT22;16392;52.508;13.468;2023-08-30T11:38:19;26.60;99.90
8563;DHT22;16392;52.508;13.468;2023-08-30T11:40:49;26.60;99.90
8563;DHT22;16392;52.508;13.468;2023-08-30T11:43:16;26.20;1.00
8563;DHT22;16392;52.508;13.468;2023-08-30T11:45:43;25.10;99.90
8563;DHT22;16392;52.508;13.468;2023-08-30T11:48:11;24.70;1.00
8563;DHT22;16392;52.508;13.468;2023-08-30T11:50:38;24.90;99.90
8563;DHT22;16392;52.508;13.468;2023-08-30T11:53:05;25.20;1.00
8563;DHT22;16392;52.508;13.468;2023-08-30T11:55:33;24.90;1.00
8563;DHT22;16392;52.508;13.468;2023-08-30T11:58:02;24.70;1.00
8563;DHT22;16392;52.508;13.468;2023-08-30T12:00:33;24.20;1.00
8563;DHT22;16392;52.508;13.468;2023-08-30T12:03:00;24.10;1.00
8563;DHT22;16392;52.508;13.468;2023-08-30T12:05:27;23.10;1.00
8563;DHT22;16392;52.508;13.468;2023-08-30T12:07:59;22.90;1.00
8563;DHT22;16392;52.508;13.468;2023-08-30T12:10:26;23.30;99.90
8563;DHT22;16392;52.508;13.468;2023-08-30T12:12:56;23.30;99.90
8563;DHT22;16392;52.508;13.468;2023-08-30T12:15:23;23.30;1.00
8563;DHT22;16392;52.508;13.468;2023-08-30T12:17:54;22.70;99.90
8563;DHT22;16392;52.508;13.468;2023-08-30T12:20:22;22.80;1.00
8563;DHT22;16392;52.508;13.468;2023-08-30T12:22:50;23.00;99.90
8563;DHT22;16392;52.508;13.468;2023-08-30T12:25:19;23.30;99.90
8563;DHT22;16392;52.508;13.468;2023-08-30T12:27:49;23.30;1.00
8563;DHT22;16392;52.508;13.468;2023-08-30T12:30:19;23.20;99.90
8563;DHT22;16392;52.508;13.468;2023-08-30T12:32:46;23.40;1.00
8563;DHT22;16392;52.508;13.468;2023-08-30T12:35:13;23.50;99.90
8563;DHT22;16392;52.508;13.468;2023-08-30T12:37:41;23.50;99.90
8563;DHT22;16392;52.508;13.468;2023-08-30T12:40:08;23.60;1.00
8563;DHT22;16392;52.508;13.468;2023-08-30T12:42:35;23.50;99.90
8563;DHT22;16392;52.508;13.468;2023-08-30T12:45:02;23.40;99.90
8563;DHT22;16392;52.508;13.468;2023-08-30T12:47:41;22.50;1.00
8563;DHT22;16392;52.508;13.468;2023-08-30T12:50:08;21.80;1.00
8563;DHT22;16392;52.508;13.468;2023-08-30T12:52:35;21.30;1.00
8563;DHT22;16392;52.508;13.468;2023-08-30T12:55:03;21.10;99.90
8563;DHT22;16392;52.508;13.468;2023-08-30T12:57:30;21.00;1.00
8563;DHT22;16392;52.508;13.468;2023-08-30T12:59:57;21.30;1.00
8563;DHT22;16392;52.508;13.468;2023-08-30T13:02:26;21.50;92.10
8563;DHT22;16392;52.508;13.468;2023-08-30T13:05:01;21.30;1.00
8563;DHT22;16392;52.508;13.468;2023-08-30T13:07:28;21.70;99.90
8563;DHT22;16392;52.508;13.468;2023-08-30T13:09:55;22.00;1.00
8563;DHT22;16392;52.508;13.468;2023-08-30T13:12:22;22.70;99.90
8563;DHT22;16392;52.508;13.468;2023-08-30T13:14:48;23.50;1.00
8563;DHT22;16392;52.508;13.468;2023-08-30T13:17:16;24.60;1.00
8563;DHT22;16392;52.508;13.468;2023-08-30T13:19:44;25.30;7.10
8563;DHT22;16392;52.508;13.468;2023-08-30T13:22:12;25.20;1.00
8563;DHT22;16392;52.508;13.468;2023-08-30T13:24:39;25.30;1.00
8563;DHT22;16392;52.508;13.468;2023-08-30T13:27:08;24.70;1.00
8563;DHT22;16392;52.508;13.468;2023-08-30T13:29:35;25.00;1.00
8563;DHT22;16392;52.508;13.468;2023-08-30T13:32:02;24.90;1.00
8563;DHT22;16392;52.508;13.468;2023-08-30T13:34:29;24.90;1.00
8563;DHT22;16392;52.508;13.468;2023-08-30T13:36:56;24.50;1.00
8563;DHT22;16392;52.508;13.468;2023-08-30T13:39:24;24.20;1.00
8563;DHT22;16392;52.508;13.468;2023-08-30T13:41:52;24.30;1.00
8563;DHT22;16392;52.508;13.468;2023-08-30T13:44:18;24.50;99.90
8563;DHT22;16392;52.508;13.468;2023-08-30T13:46:46;23.90;1.00
8563;DHT22;16392;52.508;13.468;2023-08-30T13:49:15;23.90;1.00
8563;DHT22;16392;52.508;13.468;2023-08-30T13:51:44;23.90;57.30
8563;DHT22;16392;52.508;13.468;2023-08-30T13:54:11;24.20;1.00
8563;DHT22;16392;52.508;13.468;2023-08-30T13:56:49;24.20;1.00
8563;DHT22;16392;52.508;13.468;2023-08-30T13:59:24;24.10;1.00
8563;DHT22;16392;52.508;13.468;2023-08-30T14:01:58;23.40;1.00
8563;DHT22;16392;52.508;13.468;2023-08-30T14:04:32;22.60;99.90
8563;DHT22;16392;52.508;13.468;2023-08-30T14:07:01;22.20;1.00
8563;DHT22;16392;52.508;13.468;2023-08-30T14:09:29;22.40;99.90
8563;DHT22;16392;52.508;13.468;2023-08-30T14:11:57;22.60;1.00
8563;DHT22;16392;52.508;13.468;2023-08-30T14:14:23;22.70;1.00
8563;DHT22;16392;52.508;13.468;2023-08-30T14:16:50;22.60;1.00
8563;DHT22;16392;52.508;13.468;2023-08-30T14:19:17;23.30;1.00
8563;DHT22;16392;52.508;13.468;2023-08-30T14:21:48;24.30;99.90
8563;DHT22;16392;52.508;13.468;2023-08-30T14:24:15;25.10;1.00
8563;DHT22;16392;52.508;13.468;2023-08-30T14:26:42;25.90;1.00
8563;DHT22;16392;52.508;13.468;2023-08-30T14:29:10;25.50;1.00
8563;DHT22;16392;52.508;13.468;2023-08-30T14:31:37;25.20;1.00
8563;DHT22;16392;52.508;13.468;2023-08-30T14:34:04;23.70;1.00
8563;DHT22;16392;52.508;13.468;2023-08-30T14:36:31;23.30;99.90
8563;DHT22;16392;52.508;13.468;2023-08-30T14:38:57;23.30;99.90
8563;DHT22;16392;52.508;13.468;2023-08-30T14:41:24;23.30;1.00
8563;DHT22;16392;52.508;13.468;2023-08-30T14:43:51;23.00;99.90
8563;DHT22;16392;52.508;13.468;2023-08-30T14:46:19;22.50;1.00
8563;DHT22;16392;52.508;13.468;2023-08-30T14:48:46;22.40;99.90
8563;DHT22;16392;52.508;13.468;2023-08-30T14:51:14;22.50;1.00
8563;DHT22;16392;52.508;13.468;2023-08-30T14:53:41;22.30;1.00
8563;DHT22;16392;52.508;13.468;2023-08-30T14:56:08;22.10;1.00
8563;DHT22;16392;52.508;13.468;2023-08-30T14:58:36;22.30;99.90
8563;DHT22;16392;52.508;13.468;2023-08-30T15:01:04;22.30;99.90
8563;DHT22;16392;52.508;13.468;2023-08-30T15:03:33;22.20;1.00
8563;DHT22;16392;52.508;13.468;2023-08-30T15:05:59;22.20;99.90
8563;DHT22;16392;52.508;13.468;2023-08-30T15:08:26;21.90;99.90
8563;DHT22;16392;52.508;13.468;2023-08-30T15:10:53;21.80;1.00
8563;DHT22;16392;52.508;13.468;2023-08-30T15:13:19;21.60;1.00
8563;DHT22;16392;52.508;13.468;2023-08-30T15:15:46;21.50;1.00
8563;DHT22;16392;52.508;13.468;2023-08-30T15:18:13;21.30;99.90
8563;DHT22;16392;52.508;13.468;2023-08-30T15:20:41;21.30;99.90
8563;DHT22;16392;52.508;13.468;2023-08-30T15:23:13;21.10;1.00
8563;DHT22;16392;52.508;13.468;2023-08-30T15:25:44;21.00;1.00
8563;DHT22;16392;52.508;13.468;2023-08-30T15:28:11;21.10;37.90
8563;DHT22;16392;52.508;13.468;2023-08-30T15:30:41;21.00;99.90
8563;DHT22;16392;52.508;13.468;2023-08-30T15:33:10;20.80;1.00
8563;DHT22;16392;52.508;13.468;2023-08-30T15:35:38;20.80;99.90
8563;DHT22;16392;52.508;13.468;2023-08-30T15:38:06;20.80;1.00
8563;DHT22;16392;52.508;13.468;2023-08-30T15:40:33;20.70;99.90